sensor_id;sensor_type;location;lat;lon;timestamp;P1;durP1;ratioP1;P2;durP2;ratioP2
74320;SDS011;62738;45.772;4.804;2023-04-25T00:00:13;9.02;;;4.25;;
74320;SDS011;62738;45.772;4.804;2023-04-25T00:02:40;8.13;;;3.80;;
74320;SDS011;62738;45.772;4.804;2023-04-25T00:05:08;7.85;;;3.83;;
74320;SDS011;62738;45.772;4.804;2023-04-25T00:07:35;8.18;;;3.30;;
74320;SDS011;62738;45.772;4.804;2023-04-25T00:10:02;6.53;;;3.65;;
74320;SDS011;62738;45.772;4.804;2023-04-25T00:12:29;6.90;;;3.92;;
74320;SDS011;62738;45.772;4.804;2023-04-25T00:14:56;8.23;;;3.95;;
74320;SDS011;62738;45.772;4.804;2023-04-25T00:17:26;6.13;;;3.22;;
74320;SDS011;62738;45.772;4.804;2023-04-25T00:19:53;8.07;;;3.30;;
74320;SDS011;62738;45.772;4.804;2023-04-25T00:22:20;6.78;;;3.60;;
74320;SDS011;62738;45.772;4.804;2023-04-25T00:24:46;6.20;;;3.80;;
74320;SDS011;62738;45.772;4.804;2023-04-25T00:27:13;8.68;;;3.75;;
74320;SDS011;62738;45.772;4.804;2023-04-25T00:29:40;7.78;;;4.15;;
74320;SDS011;62738;45.772;4.804;2023-04-25T00:32:06;10.55;;;3.65;;
74320;SDS011;62738;45.772;4.804;2023-04-25T00:34:33;6.72;;;3.80;;
74320;SDS011;62738;45.772;4.804;2023-04-25T00:36:59;7.43;;;3.55;;
74320;SDS011;62738;45.772;4.804;2023-04-25T00:39:28;6.63;;;3.78;;
74320;SDS011;62738;45.772;4.804;2023-04-25T00:41:55;9.18;;;3.85;;
74320;SDS011;62738;45.772;4.804;2023-04-25T00:44:21;9.25;;;3.88;;
74320;SDS011;62738;45.772;4.804;2023-04-25T00:46:48;6.00;;;3.40;;
74320;SDS011;62738;45.772;4.804;2023-04-25T00:49:16;8.23;;;3.28;;
74320;SDS011;62738;45.772;4.804;2023-04-25T00:51:43;7.68;;;3.25;;
74320;SDS011;62738;45.772;4.804;2023-04-25T00:54:11;7.10;;;3.28;;
74320;SDS011;62738;45.772;4.804;2023-04-25T00:56:39;8.10;;;3.15;;
74320;SDS011;62738;45.772;4.804;2023-04-25T00:59:06;8.43;;;3.05;;
74320;SDS011;62738;45.772;4.804;2023-04-25T01:04:15;7.10;;;3.10;;
74320;SDS011;62738;45.772;4.804;2023-04-25T01:06:42;7.28;;;3.33;;
74320;SDS011;62738;45.772;4.804;2023-04-25T01:09:09;9.88;;;3.00;;
74320;SDS011;62738;45.772;4.804;2023-04-25T01:11:36;8.27;;;3.13;;
74320;SDS011;62738;45.772;4.804;2023-04-25T01:14:02;6.35;;;3.10;;
74320;SDS011;62738;45.772;4.804;2023-04-25T01:16:29;6.50;;;3.20;;
74320;SDS011;62738;45.772;4.804;2023-04-25T01:18:56;6.80;;;3.00;;
74320;SDS011;62738;45.772;4.804;2023-04-25T01:21:23;7.97;;;3.15;;
74320;SDS011;62738;45.772;4.804;2023-04-25T01:23:52;6.68;;;2.90;;
74320;SDS011;62738;45.772;4.804;2023-04-25T01:26:20;9.40;;;3.20;;
74320;SDS011;62738;45.772;4.804;2023-04-25T01:28:48;5.82;;;2.60;;
74320;SDS011;62738;45.772;4.804;2023-04-25T01:31:15;5.97;;;3.03;;
74320;SDS011;62738;45.772;4.804;2023-04-25T01:33:42;6.95;;;2.60;;
74320;SDS011;62738;45.772;4.804;2023-04-25T01:36:08;7.03;;;2.58;;
74320;SDS011;62738;45.772;4.804;2023-04-25T01:38:35;7.53;;;3.00;;
74320;SDS011;62738;45.772;4.804;2023-04-25T01:41:02;7.57;;;3.05;;
74320;SDS011;62738;45.772;4.804;2023-04-25T01:43:29;5.75;;;2.60;;
74320;SDS011;62738;45.772;4.804;2023-04-25T01:45:56;7.75;;;2.80;;
74320;SDS011;62738;45.772;4.804;2023-04-25T01:48:23;6.13;;;2.97;;
74320;SDS011;62738;45.772;4.804;2023-04-25T01:50:50;5.97;;;2.72;;
74320;SDS011;62738;45.772;4.804;2023-04-25T01:53:17;7.88;;;2.78;;
74320;SDS011;62738;45.772;4.804;2023-04-25T01:55:43;8.27;;;2.83;;
74320;SDS011;62738;45.772;4.804;2023-04-25T01:58:10;6.45;;;2.50;;
74320;SDS011;62738;45.772;4.804;2023-04-25T02:00:39;7.93;;;2.97;;
74320;SDS011;62738;45.772;4.804;2023-04-25T02:03:07;5.28;;;2.50;;
74320;SDS011;62738;45.772;4.804;2023-04-25T02:05:35;6.63;;;3.22;;
74320;SDS011;62738;45.772;4.804;2023-04-25T02:08:04;7.13;;;2.88;;
74320;SDS011;62738;45.772;4.804;2023-04-25T02:10:31;5.28;;;2.70;;
74320;SDS011;62738;45.772;4.804;2023-04-25T02:12:58;7.53;;;2.88;;
74320;SDS011;62738;45.772;4.804;2023-04-25T02:15:25;8.15;;;3.00;;
74320;SDS011;62738;45.772;4.804;2023-04-25T02:17:52;4.40;;;2.60;;
74320;SDS011;62738;45.772;4.804;2023-04-25T02:20:20;7.97;;;2.97;;
74320;SDS011;62738;45.772;4.804;2023-04-25T02:22:48;8.23;;;3.10;;
74320;SDS011;62738;45.772;4.804;2023-04-25T02:25:15;6.90;;;2.60;;
74320;SDS011;62738;45.772;4.804;2023-04-25T02:27:42;6.07;;;2.70;;
74320;SDS011;62738;45.772;4.804;2023-04-25T02:30:09;5.18;;;2.38;;
74320;SDS011;62738;45.772;4.804;2023-04-25T02:32:36;4.80;;;2.60;;
74320;SDS011;62738;45.772;4.804;2023-04-25T02:35:03;6.75;;;2.40;;
74320;SDS011;62738;45.772;4.804;2023-04-25T02:37:30;5.60;;;2.58;;
74320;SDS011;62738;45.772;4.804;2023-04-25T02:39:57;8.18;;;2.60;;
74320;SDS011;62738;45.772;4.804;2023-04-25T02:42:26;7.50;;;2.70;;
74320;SDS011;62738;45.772;4.804;2023-04-25T02:44:53;6.53;;;2.53;;
74320;SDS011;62738;45.772;4.804;2023-04-25T02:47:19;6.65;;;2.60;;
74320;SDS011;62738;45.772;4.804;2023-04-25T02:49:47;6.63;;;2.50;;
74320;SDS011;62738;45.772;4.804;2023-04-25T02:52:13;7.63;;;2.58;;
74320;SDS011;62738;45.772;4.804;2023-04-25T02:54:40;6.32;;;2.70;;
74320;SDS011;62738;45.772;4.804;2023-04-25T02:57:07;7.05;;;2.65;;
74320;SDS011;62738;45.772;4.804;2023-04-25T02:59:33;5.05;;;2.70;;
74320;SDS011;62738;45.772;4.804;2023-04-25T03:02:00;7.80;;;3.10;;
74320;SDS011;62738;45.772;4.804;2023-04-25T03:04:28;5.60;;;2.70;;
74320;SDS011;62738;45.772;4.804;2023-04-25T03:06:54;5.57;;;2.80;;
74320;SDS011;62738;45.772;4.804;2023-04-25T03:09:21;6.00;;;2.50;;
74320;SDS011;62738;45.772;4.804;2023-04-25T03:11:48;6.88;;;2.63;;
74320;SDS011;62738;45.772;4.804;2023-04-25T03:14:14;6.25;;;2.83;;
74320;SDS011;62738;45.772;4.804;2023-04-25T03:16:41;7.25;;;2.75;;
74320;SDS011;62738;45.772;4.804;2023-04-25T03:19:08;8.10;;;2.50;;
74320;SDS011;62738;45.772;4.804;2023-04-25T03:21:35;7.35;;;2.83;;
74320;SDS011;62738;45.772;4.804;2023-04-25T03:24:02;5.88;;;2.47;;
74320;SDS011;62738;45.772;4.804;2023-04-25T03:26:30;7.43;;;2.80;;
74320;SDS011;62738;45.772;4.804;2023-04-25T03:28:56;4.85;;;2.50;;
74320;SDS011;62738;45.772;4.804;2023-04-25T03:31:23;8.90;;;3.92;;
74320;SDS011;62738;45.772;4.804;2023-04-25T03:33:50;10.55;;;4.00;;
74320;SDS011;62738;45.772;4.804;2023-04-25T03:36:17;9.77;;;3.80;;
74320;SDS011;62738;45.772;4.804;2023-04-25T03:38:43;15.50;;;4.15;;
74320;SDS011;62738;45.772;4.804;2023-04-25T03:41:10;9.32;;;4.07;;
74320;SDS011;62738;45.772;4.804;2023-04-25T03:43:37;11.18;;;4.50;;
74320;SDS011;62738;45.772;4.804;2023-04-25T03:46:03;8.13;;;3.35;;
74320;SDS011;62738;45.772;4.804;2023-04-25T03:48:30;11.27;;;4.07;;
74320;SDS011;62738;45.772;4.804;2023-04-25T03:50:57;7.57;;;2.85;;
74320;SDS011;62738;45.772;4.804;2023-04-25T03:53:23;6.43;;;3.10;;
74320;SDS011;62738;45.772;4.804;2023-04-25T03:55:50;7.88;;;3.38;;
74320;SDS011;62738;45.772;4.804;2023-04-25T03:58:17;6.35;;;3.35;;
74320;SDS011;62738;45.772;4.804;2023-04-25T04:00:44;5.80;;;3.47;;
74320;SDS011;62738;45.772;4.804;2023-04-25T04:03:11;7.32;;;3.00;;
74320;SDS011;62738;45.772;4.804;2023-04-25T04:05:38;11.32;;;3.22;;
74320;SDS011;62738;45.772;4.804;2023-04-25T04:08:06;7.30;;;3.38;;
74320;SDS011;62738;45.772;4.804;2023-04-25T04:10:33;6.22;;;2.97;;
74320;SDS011;62738;45.772;4.804;2023-04-25T04:13:00;4.95;;;3.10;;
74320;SDS011;62738;45.772;4.804;2023-04-25T04:15:27;6.10;;;3.20;;
74320;SDS011;62738;45.772;4.804;2023-04-25T04:17:54;7.30;;;3.40;;
74320;SDS011;62738;45.772;4.804;2023-04-25T04:20:21;9.10;;;3.40;;
74320;SDS011;62738;45.772;4.804;2023-04-25T04:22:47;8.57;;;3.17;;
74320;SDS011;62738;45.772;4.804;2023-04-25T04:25:14;9.38;;;3.17;;
74320;SDS011;62738;45.772;4.804;2023-04-25T04:27:41;7.78;;;3.53;;
74320;SDS011;62738;45.772;4.804;2023-04-25T04:30:07;9.02;;;3.13;;
74320;SDS011;62738;45.772;4.804;2023-04-25T04:32:34;8.27;;;3.65;;
74320;SDS011;62738;45.772;4.804;2023-04-25T04:35:04;7.32;;;3.58;;
74320;SDS011;62738;45.772;4.804;2023-04-25T04:37:32;6.03;;;3.63;;
74320;SDS011;62738;45.772;4.804;2023-04-25T04:39:59;6.80;;;3.35;;
74320;SDS011;62738;45.772;4.804;2023-04-25T04:42:31;7.50;;;3.35;;
74320;SDS011;62738;45.772;4.804;2023-04-25T04:44:57;7.75;;;3.33;;
74320;SDS011;62738;45.772;4.804;2023-04-25T04:47:25;6.53;;;3.33;;
74320;SDS011;62738;45.772;4.804;2023-04-25T04:49:52;9.25;;;3.78;;
74320;SDS011;62738;45.772;4.804;2023-04-25T04:52:18;8.68;;;3.72;;
74320;SDS011;62738;45.772;4.804;2023-04-25T04:54:45;9.30;;;4.20;;
74320;SDS011;62738;45.772;4.804;2023-04-25T04:57:12;8.68;;;3.85;;
74320;SDS011;62738;45.772;4.804;2023-04-25T04:59:38;6.57;;;3.53;;
74320;SDS011;62738;45.772;4.804;2023-04-25T05:02:05;8.02;;;3.92;;
74320;SDS011;62738;45.772;4.804;2023-04-25T05:04:33;7.80;;;3.50;;
74320;SDS011;62738;45.772;4.804;2023-04-25T05:06:59;9.25;;;3.60;;
74320;SDS011;62738;45.772;4.804;2023-04-25T05:09:26;11.30;;;4.15;;
74320;SDS011;62738;45.772;4.804;2023-04-25T05:11:53;8.90;;;4.25;;
74320;SDS011;62738;45.772;4.804;2023-04-25T05:14:20;7.60;;;3.92;;
74320;SDS011;62738;45.772;4.804;2023-04-25T05:16:48;8.68;;;3.70;;
74320;SDS011;62738;45.772;4.804;2023-04-25T05:19:14;8.27;;;4.10;;
74320;SDS011;62738;45.772;4.804;2023-04-25T05:21:41;7.72;;;3.92;;
74320;SDS011;62738;45.772;4.804;2023-04-25T05:24:09;7.57;;;3.80;;
74320;SDS011;62738;45.772;4.804;2023-04-25T05:26:36;9.60;;;4.00;;
74320;SDS011;62738;45.772;4.804;2023-04-25T05:29:03;9.35;;;4.40;;
74320;SDS011;62738;45.772;4.804;2023-04-25T05:31:30;8.35;;;3.97;;
74320;SDS011;62738;45.772;4.804;2023-04-25T05:33:58;9.63;;;4.22;;
74320;SDS011;62738;45.772;4.804;2023-04-25T05:36:24;11.70;;;4.13;;
74320;SDS011;62738;45.772;4.804;2023-04-25T05:38:52;9.23;;;4.35;;
74320;SDS011;62738;45.772;4.804;2023-04-25T05:41:19;9.73;;;4.20;;
74320;SDS011;62738;45.772;4.804;2023-04-25T05:43:46;8.70;;;4.30;;
74320;SDS011;62738;45.772;4.804;2023-04-25T05:46:13;12.60;;;4.28;;
74320;SDS011;62738;45.772;4.804;2023-04-25T05:48:40;8.45;;;4.47;;
74320;SDS011;62738;45.772;4.804;2023-04-25T05:51:07;8.70;;;4.20;;
74320;SDS011;62738;45.772;4.804;2023-04-25T05:53:33;13.75;;;4.60;;
74320;SDS011;62738;45.772;4.804;2023-04-25T05:56:00;10.07;;;4.75;;
74320;SDS011;62738;45.772;4.804;2023-04-25T05:58:27;8.35;;;4.60;;
74320;SDS011;62738;45.772;4.804;2023-04-25T06:00:55;10.77;;;4.55;;
74320;SDS011;62738;45.772;4.804;2023-04-25T06:03:21;10.85;;;4.57;;
74320;SDS011;62738;45.772;4.804;2023-04-25T06:05:49;11.40;;;4.40;;
74320;SDS011;62738;45.772;4.804;2023-04-25T06:08:16;10.15;;;5.03;;
74320;SDS011;62738;45.772;4.804;2023-04-25T06:10:42;11.82;;;5.78;;
74320;SDS011;62738;45.772;4.804;2023-04-25T06:13:09;10.15;;;4.90;;
74320;SDS011;62738;45.772;4.804;2023-04-25T06:15:35;8.55;;;4.15;;
74320;SDS011;62738;45.772;4.804;2023-04-25T06:18:02;14.77;;;6.80;;
74320;SDS011;62738;45.772;4.804;2023-04-25T06:20:29;12.32;;;6.07;;
74320;SDS011;62738;45.772;4.804;2023-04-25T06:22:56;10.57;;;4.88;;
74320;SDS011;62738;45.772;4.804;2023-04-25T06:25:23;12.18;;;4.28;;
74320;SDS011;62738;45.772;4.804;2023-04-25T06:27:50;8.15;;;4.60;;
74320;SDS011;62738;45.772;4.804;2023-04-25T06:30:16;10.95;;;4.38;;
74320;SDS011;62738;45.772;4.804;2023-04-25T06:32:48;11.90;;;4.18;;
74320;SDS011;62738;45.772;4.804;2023-04-25T06:35:15;7.82;;;4.25;;
74320;SDS011;62738;45.772;4.804;2023-04-25T06:37:41;10.05;;;4.65;;
74320;SDS011;62738;45.772;4.804;2023-04-25T06:40:08;8.30;;;4.20;;
74320;SDS011;62738;45.772;4.804;2023-04-25T06:42:35;11.32;;;4.32;;
74320;SDS011;62738;45.772;4.804;2023-04-25T06:45:02;10.27;;;4.35;;
74320;SDS011;62738;45.772;4.804;2023-04-25T06:47:29;13.20;;;4.80;;
74320;SDS011;62738;45.772;4.804;2023-04-25T06:49:56;8.05;;;4.20;;
74320;SDS011;62738;45.772;4.804;2023-04-25T06:52:23;8.98;;;4.10;;
74320;SDS011;62738;45.772;4.804;2023-04-25T06:54:49;8.18;;;4.00;;
74320;SDS011;62738;45.772;4.804;2023-04-25T06:57:16;7.45;;;4.10;;
74320;SDS011;62738;45.772;4.804;2023-04-25T06:59:43;12.20;;;4.47;;
74320;SDS011;62738;45.772;4.804;2023-04-25T07:02:09;10.57;;;4.20;;
74320;SDS011;62738;45.772;4.804;2023-04-25T07:04:36;7.95;;;4.30;;
74320;SDS011;62738;45.772;4.804;2023-04-25T07:07:04;19.08;;;4.47;;
74320;SDS011;62738;45.772;4.804;2023-04-25T07:09:30;10.15;;;4.63;;
74320;SDS011;62738;45.772;4.804;2023-04-25T07:12:00;8.70;;;4.13;;
74320;SDS011;62738;45.772;4.804;2023-04-25T07:14:27;7.60;;;3.78;;
74320;SDS011;62738;45.772;4.804;2023-04-25T07:16:54;5.05;;;3.15;;
74320;SDS011;62738;45.772;4.804;2023-04-25T07:19:23;6.63;;;3.33;;
74320;SDS011;62738;45.772;4.804;2023-04-25T07:21:53;7.32;;;3.33;;
74320;SDS011;62738;45.772;4.804;2023-04-25T07:24:19;7.57;;;3.28;;
74320;SDS011;62738;45.772;4.804;2023-04-25T07:26:46;4.85;;;3.10;;
74320;SDS011;62738;45.772;4.804;2023-04-25T07:29:13;8.70;;;2.92;;
74320;SDS011;62738;45.772;4.804;2023-04-25T07:31:39;8.75;;;2.97;;
74320;SDS011;62738;45.772;4.804;2023-04-25T07:34:06;5.97;;;2.83;;
74320;SDS011;62738;45.772;4.804;2023-04-25T07:36:33;3.75;;;2.45;;
74320;SDS011;62738;45.772;4.804;2023-04-25T07:39:00;10.32;;;3.25;;
74320;SDS011;62738;45.772;4.804;2023-04-25T07:41:26;7.57;;;3.28;;
74320;SDS011;62738;45.772;4.804;2023-04-25T07:43:53;6.05;;;2.80;;
74320;SDS011;62738;45.772;4.804;2023-04-25T07:46:20;4.22;;;2.90;;
74320;SDS011;62738;45.772;4.804;2023-04-25T07:48:46;5.50;;;2.75;;
74320;SDS011;62738;45.772;4.804;2023-04-25T07:51:13;8.43;;;2.92;;
74320;SDS011;62738;45.772;4.804;2023-04-25T07:53:40;7.25;;;3.25;;
74320;SDS011;62738;45.772;4.804;2023-04-25T07:56:07;4.88;;;3.03;;
74320;SDS011;62738;45.772;4.804;2023-04-25T07:58:34;5.07;;;2.75;;
74320;SDS011;62738;45.772;4.804;2023-04-25T08:01:00;7.45;;;2.95;;
74320;SDS011;62738;45.772;4.804;2023-04-25T08:03:27;7.07;;;2.75;;
74320;SDS011;62738;45.772;4.804;2023-04-25T08:05:54;6.25;;;2.75;;
74320;SDS011;62738;45.772;4.804;2023-04-25T08:08:21;5.55;;;2.60;;
74320;SDS011;62738;45.772;4.804;2023-04-25T08:10:47;5.63;;;2.40;;
74320;SDS011;62738;45.772;4.804;2023-04-25T08:13:17;6.07;;;2.08;;
74320;SDS011;62738;45.772;4.804;2023-04-25T08:15:43;4.53;;;2.20;;
74320;SDS011;62738;45.772;4.804;2023-04-25T08:18:10;5.38;;;2.30;;
74320;SDS011;62738;45.772;4.804;2023-04-25T08:20:37;6.30;;;2.13;;
74320;SDS011;62738;45.772;4.804;2023-04-25T08:23:03;7.97;;;2.63;;
74320;SDS011;62738;45.772;4.804;2023-04-25T08:25:30;6.95;;;2.20;;
74320;SDS011;62738;45.772;4.804;2023-04-25T08:27:57;7.32;;;2.42;;
74320;SDS011;62738;45.772;4.804;2023-04-25T08:30:25;4.50;;;2.25;;
74320;SDS011;62738;45.772;4.804;2023-04-25T08:32:53;7.65;;;2.70;;
74320;SDS011;62738;45.772;4.804;2023-04-25T08:35:20;4.38;;;1.92;;
74320;SDS011;62738;45.772;4.804;2023-04-25T08:37:46;5.35;;;2.47;;
74320;SDS011;62738;45.772;4.804;2023-04-25T08:40:15;5.90;;;2.28;;
74320;SDS011;62738;45.772;4.804;2023-04-25T08:42:42;6.00;;;2.30;;
74320;SDS011;62738;45.772;4.804;2023-04-25T08:45:09;6.95;;;2.40;;
74320;SDS011;62738;45.772;4.804;2023-04-25T08:47:37;4.43;;;2.35;;
74320;SDS011;62738;45.772;4.804;2023-04-25T08:50:05;7.22;;;2.30;;
74320;SDS011;62738;45.772;4.804;2023-04-25T08:52:36;4.97;;;2.13;;
74320;SDS011;62738;45.772;4.804;2023-04-25T08:55:06;6.90;;;2.20;;
74320;SDS011;62738;45.772;4.804;2023-04-25T08:57:34;5.78;;;2.30;;
74320;SDS011;62738;45.772;4.804;2023-04-25T09:00:02;4.53;;;1.52;;
74320;SDS011;62738;45.772;4.804;2023-04-25T09:02:29;5.35;;;1.75;;
74320;SDS011;62738;45.772;4.804;2023-04-25T09:04:57;3.90;;;2.08;;
74320;SDS011;62738;45.772;4.804;2023-04-25T09:07:24;5.13;;;2.47;;
74320;SDS011;62738;45.772;4.804;2023-04-25T09:09:52;4.97;;;1.70;;
74320;SDS011;62738;45.772;4.804;2023-04-25T09:12:18;7.60;;;2.10;;
74320;SDS011;62738;45.772;4.804;2023-04-25T09:17:46;4.63;;;1.42;;
74320;SDS011;62738;45.772;4.804;2023-04-25T09:20:22;7.53;;;1.90;;
74320;SDS011;62738;45.772;4.804;2023-04-25T09:22:48;6.00;;;1.70;;
74320;SDS011;62738;45.772;4.804;2023-04-25T09:25:15;7.07;;;2.00;;
74320;SDS011;62738;45.772;4.804;2023-04-25T09:27:51;5.28;;;1.73;;
74320;SDS011;62738;45.772;4.804;2023-04-25T09:30:28;7.47;;;2.28;;
74320;SDS011;62738;45.772;4.804;2023-04-25T09:33:05;5.55;;;1.88;;
74320;SDS011;62738;45.772;4.804;2023-04-25T09:35:42;3.58;;;1.85;;
74320;SDS011;62738;45.772;4.804;2023-04-25T09:38:13;6.10;;;1.83;;
74320;SDS011;62738;45.772;4.804;2023-04-25T09:40:42;6.07;;;1.70;;
74320;SDS011;62738;45.772;4.804;2023-04-25T09:43:24;4.38;;;1.50;;
74320;SDS011;62738;45.772;4.804;2023-04-25T09:45:53;6.72;;;1.70;;
74320;SDS011;62738;45.772;4.804;2023-04-25T09:48:26;5.50;;;2.00;;
74320;SDS011;62738;45.772;4.804;2023-04-25T09:51:03;4.75;;;1.80;;
74320;SDS011;62738;45.772;4.804;2023-04-25T09:53:30;8.98;;;1.95;;
74320;SDS011;62738;45.772;4.804;2023-04-25T09:55:59;6.85;;;1.75;;
74320;SDS011;62738;45.772;4.804;2023-04-25T09:58:27;6.43;;;1.80;;
74320;SDS011;62738;45.772;4.804;2023-04-25T10:00:59;8.43;;;1.95;;
74320;SDS011;62738;45.772;4.804;2023-04-25T10:03:29;7.20;;;1.90;;
74320;SDS011;62738;45.772;4.804;2023-04-25T10:06:00;7.15;;;2.10;;
74320;SDS011;62738;45.772;4.804;2023-04-25T10:08:31;3.53;;;1.60;;
74320;SDS011;62738;45.772;4.804;2023-04-25T10:11:00;9.57;;;1.92;;
74320;SDS011;62738;45.772;4.804;2023-04-25T10:13:28;2.95;;;1.55;;
74320;SDS011;62738;45.772;4.804;2023-04-25T10:15:59;3.67;;;1.67;;
74320;SDS011;62738;45.772;4.804;2023-04-25T10:18:28;4.95;;;1.90;;
74320;SDS011;62738;45.772;4.804;2023-04-25T10:20:59;3.70;;;1.58;;
74320;SDS011;62738;45.772;4.804;2023-04-25T10:23:27;5.32;;;1.63;;
74320;SDS011;62738;45.772;4.804;2023-04-25T10:25:55;6.07;;;1.92;;
74320;SDS011;62738;45.772;4.804;2023-04-25T10:28:23;5.97;;;1.70;;
74320;SDS011;62738;45.772;4.804;2023-04-25T10:30:59;5.07;;;1.92;;
74320;SDS011;62738;45.772;4.804;2023-04-25T10:33:37;3.50;;;1.50;;
74320;SDS011;62738;45.772;4.804;2023-04-25T10:36:12;3.15;;;1.75;;
74320;SDS011;62738;45.772;4.804;2023-04-25T10:38:50;6.05;;;1.70;;
74320;SDS011;62738;45.772;4.804;2023-04-25T10:41:20;4.03;;;1.50;;
74320;SDS011;62738;45.772;4.804;2023-04-25T10:43:49;5.78;;;1.50;;
74320;SDS011;62738;45.772;4.804;2023-04-25T10:46:28;4.00;;;1.48;;
74320;SDS011;62738;45.772;4.804;2023-04-25T10:48:59;4.45;;;1.60;;
74320;SDS011;62738;45.772;4.804;2023-04-25T10:51:33;2.97;;;1.27;;
74320;SDS011;62738;45.772;4.804;2023-04-25T10:54:20;7.10;;;1.80;;
74320;SDS011;62738;45.772;4.804;2023-04-25T10:56:48;3.95;;;1.60;;
74320;SDS011;62738;45.772;4.804;2023-04-25T10:59:17;5.53;;;1.58;;
74320;SDS011;62738;45.772;4.804;2023-04-25T11:01:46;5.10;;;2.05;;
74320;SDS011;62738;45.772;4.804;2023-04-25T11:04:19;4.63;;;1.60;;
74320;SDS011;62738;45.772;4.804;2023-04-25T11:09:40;2.88;;;1.20;;
74320;SDS011;62738;45.772;4.804;2023-04-25T11:12:07;5.22;;;1.50;;
74320;SDS011;62738;45.772;4.804;2023-04-25T11:14:35;4.90;;;2.58;;
74320;SDS011;62738;45.772;4.804;2023-04-25T11:17:02;3.60;;;1.70;;
74320;SDS011;62738;45.772;4.804;2023-04-25T11:19:29;7.35;;;3.58;;
74320;SDS011;62738;45.772;4.804;2023-04-25T11:21:57;3.83;;;1.50;;
74320;SDS011;62738;45.772;4.804;2023-04-25T11:24:28;7.20;;;1.70;;
74320;SDS011;62738;45.772;4.804;2023-04-25T11:29:23;4.75;;;1.90;;
74320;SDS011;62738;45.772;4.804;2023-04-25T11:31:50;4.28;;;1.70;;
74320;SDS011;62738;45.772;4.804;2023-04-25T11:34:17;4.45;;;1.63;;
74320;SDS011;62738;45.772;4.804;2023-04-25T11:36:45;3.88;;;1.77;;
74320;SDS011;62738;45.772;4.804;2023-04-25T11:39:12;3.90;;;1.70;;
74320;SDS011;62738;45.772;4.804;2023-04-25T11:41:41;7.13;;;1.48;;
74320;SDS011;62738;45.772;4.804;2023-04-25T11:44:11;4.57;;;1.60;;
74320;SDS011;62738;45.772;4.804;2023-04-25T11:46:38;4.45;;;1.50;;
74320;SDS011;62738;45.772;4.804;2023-04-25T11:49:04;3.10;;;1.70;;
74320;SDS011;62738;45.772;4.804;2023-04-25T11:51:37;6.50;;;1.50;;
74320;SDS011;62738;45.772;4.804;2023-04-25T11:54:05;3.80;;;1.25;;
74320;SDS011;62738;45.772;4.804;2023-04-25T11:56:32;5.45;;;1.67;;
74320;SDS011;62738;45.772;4.804;2023-04-25T11:59:00;2.83;;;1.50;;
74320;SDS011;62738;45.772;4.804;2023-04-25T12:01:35;2.88;;;1.50;;
74320;SDS011;62738;45.772;4.804;2023-04-25T12:04:13;4.68;;;1.30;;
74320;SDS011;62738;45.772;4.804;2023-04-25T12:06:53;3.40;;;1.63;;
74320;SDS011;62738;45.772;4.804;2023-04-25T12:09:31;3.05;;;1.30;;
74320;SDS011;62738;45.772;4.804;2023-04-25T12:12:00;3.47;;;1.50;;
74320;SDS011;62738;45.772;4.804;2023-04-25T12:14:31;3.80;;;1.63;;
74320;SDS011;62738;45.772;4.804;2023-04-25T12:16:59;4.85;;;1.60;;
74320;SDS011;62738;45.772;4.804;2023-04-25T12:19:32;3.10;;;1.40;;
74320;SDS011;62738;45.772;4.804;2023-04-25T12:22:00;3.30;;;1.30;;
74320;SDS011;62738;45.772;4.804;2023-04-25T12:24:27;3.17;;;1.40;;
74320;SDS011;62738;45.772;4.804;2023-04-25T12:27:01;5.00;;;1.38;;
74320;SDS011;62738;45.772;4.804;2023-04-25T12:29:30;3.17;;;1.42;;
74320;SDS011;62738;45.772;4.804;2023-04-25T12:32:14;3.70;;;1.67;;
74320;SDS011;62738;45.772;4.804;2023-04-25T12:34:40;3.90;;;1.50;;
74320;SDS011;62738;45.772;4.804;2023-04-25T12:37:07;4.95;;;1.50;;
74320;SDS011;62738;45.772;4.804;2023-04-25T12:39:34;4.07;;;1.30;;
74320;SDS011;62738;45.772;4.804;2023-04-25T12:42:01;3.88;;;1.50;;
74320;SDS011;62738;45.772;4.804;2023-04-25T12:44:28;3.65;;;1.30;;
74320;SDS011;62738;45.772;4.804;2023-04-25T12:46:55;3.38;;;1.40;;
74320;SDS011;62738;45.772;4.804;2023-04-25T12:49:21;3.40;;;1.50;;
74320;SDS011;62738;45.772;4.804;2023-04-25T12:51:48;5.60;;;1.60;;
74320;SDS011;62738;45.772;4.804;2023-04-25T12:54:15;4.93;;;1.55;;
74320;SDS011;62738;45.772;4.804;2023-04-25T12:56:42;2.92;;;1.30;;
74320;SDS011;62738;45.772;4.804;2023-04-25T12:59:08;4.38;;;1.30;;
74320;SDS011;62738;45.772;4.804;2023-04-25T13:01:35;3.65;;;1.27;;
74320;SDS011;62738;45.772;4.804;2023-04-25T13:04:02;4.03;;;1.33;;
74320;SDS011;62738;45.772;4.804;2023-04-25T13:06:29;2.85;;;1.30;;
74320;SDS011;62738;45.772;4.804;2023-04-25T13:08:57;4.00;;;1.65;;
74320;SDS011;62738;45.772;4.804;2023-04-25T13:11:23;2.90;;;1.63;;
74320;SDS011;62738;45.772;4.804;2023-04-25T13:13:50;4.78;;;1.60;;
74320;SDS011;62738;45.772;4.804;2023-04-25T13:16:18;4.15;;;1.38;;
74320;SDS011;62738;45.772;4.804;2023-04-25T13:18:47;4.32;;;1.52;;
74320;SDS011;62738;45.772;4.804;2023-04-25T13:21:14;3.28;;;1.58;;
74320;SDS011;62738;45.772;4.804;2023-04-25T13:23:41;2.97;;;1.15;;
74320;SDS011;62738;45.772;4.804;2023-04-25T13:26:09;3.40;;;1.40;;
74320;SDS011;62738;45.772;4.804;2023-04-25T13:28:36;3.55;;;1.50;;
74320;SDS011;62738;45.772;4.804;2023-04-25T13:31:03;3.30;;;1.50;;
74320;SDS011;62738;45.772;4.804;2023-04-25T13:33:29;2.45;;;1.20;;
74320;SDS011;62738;45.772;4.804;2023-04-25T13:35:56;3.95;;;1.50;;
74320;SDS011;62738;45.772;4.804;2023-04-25T13:38:25;3.92;;;1.60;;
74320;SDS011;62738;45.772;4.804;2023-04-25T13:40:52;2.92;;;1.33;;
74320;SDS011;62738;45.772;4.804;2023-04-25T13:43:19;3.90;;;1.30;;
74320;SDS011;62738;45.772;4.804;2023-04-25T13:45:48;3.13;;;1.50;;
74320;SDS011;62738;45.772;4.804;2023-04-25T13:48:15;4.60;;;1.50;;
74320;SDS011;62738;45.772;4.804;2023-04-25T13:50:42;3.00;;;1.25;;
74320;SDS011;62738;45.772;4.804;2023-04-25T13:53:08;4.05;;;1.52;;
74320;SDS011;62738;45.772;4.804;2023-04-25T13:55:35;3.55;;;1.40;;
74320;SDS011;62738;45.772;4.804;2023-04-25T13:58:03;3.75;;;1.58;;
74320;SDS011;62738;45.772;4.804;2023-04-25T14:00:37;3.90;;;1.35;;
74320;SDS011;62738;45.772;4.804;2023-04-25T14:03:06;4.75;;;1.50;;
74320;SDS011;62738;45.772;4.804;2023-04-25T14:05:35;4.97;;;1.52;;
74320;SDS011;62738;45.772;4.804;2023-04-25T14:08:07;2.33;;;1.30;;
74320;SDS011;62738;45.772;4.804;2023-04-25T14:10:34;3.40;;;1.30;;
74320;SDS011;62738;45.772;4.804;2023-04-25T14:13:02;2.53;;;1.38;;
74320;SDS011;62738;45.772;4.804;2023-04-25T14:15:30;3.83;;;1.30;;
74320;SDS011;62738;45.772;4.804;2023-04-25T14:17:58;3.42;;;1.30;;
74320;SDS011;62738;45.772;4.804;2023-04-25T14:20:25;4.13;;;1.20;;
74320;SDS011;62738;45.772;4.804;2023-04-25T14:22:52;6.22;;;1.50;;
74320;SDS011;62738;45.772;4.804;2023-04-25T14:25:20;3.05;;;1.25;;
74320;SDS011;62738;45.772;4.804;2023-04-25T14:27:47;3.33;;;1.30;;
74320;SDS011;62738;45.772;4.804;2023-04-25T14:30:17;3.50;;;1.30;;
74320;SDS011;62738;45.772;4.804;2023-04-25T14:32:44;2.72;;;1.00;;
74320;SDS011;62738;45.772;4.804;2023-04-25T14:35:12;3.90;;;1.48;;
74320;SDS011;62738;45.772;4.804;2023-04-25T14:37:38;3.55;;;1.45;;
74320;SDS011;62738;45.772;4.804;2023-04-25T14:40:05;3.17;;;1.35;;
74320;SDS011;62738;45.772;4.804;2023-04-25T14:42:34;6.22;;;1.60;;
74320;SDS011;62738;45.772;4.804;2023-04-25T14:45:02;2.53;;;1.20;;
74320;SDS011;62738;45.772;4.804;2023-04-25T14:47:30;2.38;;;1.30;;
74320;SDS011;62738;45.772;4.804;2023-04-25T14:49:57;3.10;;;1.20;;
74320;SDS011;62738;45.772;4.804;2023-04-25T14:52:23;4.82;;;1.50;;
74320;SDS011;62738;45.772;4.804;2023-04-25T14:54:51;4.32;;;1.35;;
74320;SDS011;62738;45.772;4.804;2023-04-25T14:57:18;4.72;;;1.30;;
74320;SDS011;62738;45.772;4.804;2023-04-25T14:59:45;2.95;;;1.23;;